Latest Observation

73 Stations

15 Minute Data | America/Los_Angeles
as of 10/6/22 10:33 AM PDT
Station Date Time Temp (°F) RH (%) Dew Pt (°F) Wind Spd (mph) Wind Dir (°) Wind Gust (mph) Latest Rain (In) Daily Min Temp (°F) Daily Max Temp (°F) Daily Rain (In) Daily Max Wind (mph) Yest MinT (°F) Yest MaxT (°F) Yest Rain (In) Yest MaxGst (mph) MinBV Day (V)
Upper Lake 10/6/22 1030 70.4   0.3 52   1 52.1   0.3 2.0   0.1 SSE | 147 3.7   0.1 0.00 44.7   0.2 71.3   0.5 0.00 3.7   0.3 44.5 88.5 0.00 8.9 12.3   0.1
Scotts Valley 10/6/22 1030 71.0   0.1 63   8 57.7   3.7 1.1   0.4 SW | 221 3.8   1.3 0.00 42.1   1.3 72.2   0.2 0.00 4.2   1.2 40.7 93.4 0.00 6.8 -
Scotts Valley-South (Bella Vista) 10/6/22 1030 72.5   1.4 56   7 55.9   4.9 0.8   0.4 ENE | 58 2.2   0.2 0.00 47.8   1.9 72.8   1.2 0.00 4.0   0.3 46.0 90.2 0.00 7.5 -
Kelseyville 10/6/22 1030 69.6   1.0 58   6 54.5   3.7 0.9   0.4 NE | 44 3.1   1.3 0.00 45.6   2.1 70.5   1.4 0.00 3.1   1.3 43.5 88.9 0.00 9.6 -
Kelseyville Remote 10/6/22 1015 72.5   1.3 49   5 52.2   4.0 - - - 0.00 46.8   1.8 73.8   2.0 0.00 - 45.0 91.6 0.00 - -
Kelseyville (Clark Drive) 10/6/22 1030 72.0   1.1 - - - - - 0.00 44.5   1.5 73.6   0.7 0.00 - 43.0 91.0 0.00 - -
Kelsey Bench (Oaklea) 10/6/22 1030 70.4   1.1 53   4 52.3   3.2 2.2   0.5 NNE | 29 4.0   0.8 0.00 51.7   1.7 70.9   0.8 0.00 6.3   0.3 50.0 88.6 0.00 10.0 12.7   0.0
Kelseyville-South 10/6/22 1030 71.2   1.5 3   0 -13.6   1.0 1.0   0.7 NE | 53 4.8   0.3 0.00 45.8   1.9 71.8   1.3 0.00 4.8   0.3 43.9 88.2 0.00 11.5 -
Bell Hill-West 10/6/22 1030 70.4   0.8 53   6 52.7   4.1 2.3   1.4 N | 10 4.8   1.0 0.00 48.5   2.4 71.0   0.6 0.00 4.8   0.0 46.1 88.2 0.00 11.1 -
Wight Way 10/6/22 1000 71.3   0.0 52   5 52.7   2.6 1.1   0.7 WNW | 292 3.2   0.8 0.00 42.9   1.7 72.2   0.8 0.00 3.2   0.8 41.2 93.4 0.00 9.7 -
High Valley Ridgeline (Brassfield) 10/6/22 1030 74.7   1.2 41   2 49.8   0.1 8.0   3.3 E | 81 10.2   3.0 0.00 65.1   1.3 75.3   1.3 0.00 10.2   0.9 63.8 88.2 0.00 13.8 -
Ridgeline Top (Brassfield) 10/6/22 1015 73.9   0.4 - - - - - - 67.3   1.7 75.1   0.0 - - 65.6 86.7 - - -
Ridgeline Low (Brassfield) 10/6/22 1030 76.5   0.8 - - - - - - 57.6   0.8 77.0   1.3 - - 56.8 87.3 - - -
High Valley Winery 10/6/22 1030 78.1   0.3 38   1 50.2   0.5 0.6   0.3 ESE | 107 2.0   0.3 0.00 45.2   0.2 79.3   0.2 0.00 2.2   1.0 45.0 88.8 0.00 9.8 -
Long Valley (Shannon) 10/6/22 0730 43.7   0.2 94   2 42.1   0.7 0.2   0.6 SW | 233 1.1   1.2 0.00 42.5   0.2 51.0   0.2 0.00 2.2   0.7 42.7 91.3 0.00 9.1 12.8   0.0
Robertsbridge Vineyards 10/6/22 1030 73.0   1.2 51   7 54.0   4.9 - - - - 47.2   1.3 73.6   1.0 - - 45.9 88.6 - - -
Red Hills (Beckstoffer) 10/6/22 1030 76.6   1.7 43   3 52.3   0.2 - - - - 44.3   1.0 77.2   1.5 - - 43.2 89.4 - - 12.6   0.0
Winters (Shannon) 10/6/22 1030 74.4   1.0 45   3 51.8   1.2 2.1   0.3 N | 7 3.9   1.0 0.00 42.6   2.0 75.0   1.1 0.00 3.9   0.3 40.7 88.1 0.00 9.7 12.8   0.0
Rolling Knolls (Shannon) 10/6/22 1030 73.5   0.6 52   2 54.6   1.8 0.9   0.2 NE | 45 2.2   0.1 0.00 43.7   1.0 74.3   0.7 0.00 2.2   0.1 42.7 90.4 0.00 6.8 12.8   0.0
Secret Pond (Shannon) 10/6/22 1030 77.3   0.6 40   3 51.5   1.4 1.8   0.2 N | 0 4.3   0.1 0.00 46.3   0.7 78.2   0.4 0.00 4.6   0.2 45.6 87.1 0.00 8.4 12.8   0.0
Lower Lake 10/6/22 1030 76.3   2.3 47   1 54.5   1.3 1.4   0.3 ENE | 70 3.0   0.4 0.00 52.3   1.4 77.4   3.1 0.00 5.2   0.3 50.8 89.1 0.00 10.2 -
Middletown (Diamond D) 10/6/22 1030 77.1   0.8 45   3 54.4   2.8 0.8   0.0 NW | 323 3.2   0.5 0.00 46.3   1.2 78.2   0.7 0.00 3.8   0.3 45.1 90.5 0.00 16.5 12.5   0.0
Middletown-West (Bella Vista) 10/6/22 1030 79.2   2.1 40   1 53.0   2.7 - - - 0.00 46.1   1.8 80.9   2.5 0.00 - 44.3 92.3 0.00 - -
Middletown-South 10/6/22 1030 80.1   2.2 38   2 52.4   0.8 0.7   0.5 NNE | 28 3.2   0.5 0.00 49.8   1.5 81.6   3.2 0.00 3.2   0.5 48.3 90.0 0.00 12.8 -
Lower Bohn 10/6/22 0945 72.7   1.5 56   3 56.2   2.7 0.4   0.7 S | 187 2.0   0.4 0.00 40.9   0.5 74.5   1.8 0.00 2.2   1.3 40.4 93.2 0.00 9.4 -
Upper Bohn-North 10/6/22 1030 78.7   1.3 40   2 52.5   2.5 1.8   0.8 NNW | 337 3.5   0.9 0.00 53.1   0.7 79.7   0.2 0.00 - - - - - -
Upper Bohn-South 10/6/22 1030 76.1   1.5 61   3 61.8   0.2 0.8   1.2 NNE | 32 2.6   2.4 0.00 54.1   0.8 77.0   1.5 0.00 - - - - - -
Morgan Valley 10/6/22 1030 78.6   3.5 35   10 48.9   3.8 3.5   1.1 ENE | 67 7.0   0.4 0.00 67.2   1.5 79.3   2.1 0.00 8.4   0.4 65.7 84.6 0.00 10.4 -
Mine Pit South 10/6/22 0930 76.2   1.4 41   1 50.9   0.7 3.6   2.4 NNE | 22 7.5   3.7 0.00 62.9   0.2 76.9   0.2 0.00 10.8   0.7 62.7 90.7 0.00 11.9 -
Cow Mountain 10/6/22 1030 68.6   1.1 - - 12.9   2.8 E | 92 18.2   2.4 0.00 65.7   0.8 70.8   0.6 0.00 18.6   1.8 66.5 79.4 0.00 17.1 12.8   0.0
Ukiah-SE (Ruddick) 10/6/22 1030 67.6   1.7 60   1 53.2   1.3 0.6   1.4 NNE | 26 2.7   1.8 0.00 46.7   2.0 68.8   2.4 0.01 3.0   1.5 44.6 92.3 0.00 9.3 -
Max     80.1 63 61.8 12.9 - 18.2 0.00 67.3 81.6 0.01 18.6 66.5 93.4 0.00 17.1 12.8
Avg     74.0 47 50.7 2.2 - 4.6 0.00 - - - - - - - - -
Min     67.6 3 -13.6 0.4 - 2.0 0.00 40.9 68.8 0.00 2.2 40.4 79.4 0.00 6.8 12.3